Información del aeropuerto LEBB

Información de pista
Pista 10 Longitud 6562 ft Anchura 148 ft
Elevación 116 ft Umbral 0 ft Rumbo 97
Pista 28 Longitud 6562 ft Anchura 148 ft
Elevación 129 ft Umbral 0 ft Rumbo 277
Pista 12 Longitud 8530 ft Anchura 148 ft
Elevación 119 ft Umbral 0 ft Rumbo 117
Pista 30 Longitud 8530 ft Anchura 148 ft
Elevación 128 ft Umbral 1509 ft Rumbo 297
Frecuencias del aeropuerto
Tipo APP Nombre APP Frecuencia 120.7 MHZ
Tipo ATIS Nombre ATIS Frecuencia 118.825 MHZ
Tipo GND Nombre GND Frecuencia 121.7 MHZ
Tipo TWR Nombre TWR Frecuencia 118.5 MHZ
Radioayudas del aeropuerto
Tipo VOR-DME Nombre Bilbao Frecuencia 115900 KHZ
Información meteorológica del aeropuerto y NOTAM
ADDS - METARS form results

(0249 UTC 28 February 2021)
Data provider http://aviationweather.gov/metar/data/
 
METAR text: LEBB 280230Z AUTO VRB01KT 9999 SCT033 07/07 Q1026
Conditions at: LEBB (BILBAO/SONDICA , ES) observed 0230 UTC 28 February 2021
Temperature: 7.0°C (45°F)
Dewpoint: 7.0°C (45°F) [RH = 100%]
Pressure (altimeter): 30.30 inches Hg (1026.0 mb)
Winds: variable direction winds at 1 MPH (1 knots; 0.5 m/s)
Visibility: 6 or more miles (10+ km)
Ceiling: at least 12,000 feet AGL
Clouds: scattered clouds at 3300 feet AGL
Weather: no significant weather observed at this time

METAR text: LEBB 280200Z AUTO 08003KT 9999 SCT035 08/06 Q1026
Conditions at: LEBB (BILBAO/SONDICA , ES) observed 0200 UTC 28 February 2021
Temperature: 8.0°C (46°F)
Dewpoint: 6.0°C (43°F) [RH = 87%]
Pressure (altimeter): 30.30 inches Hg (1026.0 mb)
Winds: from the E (80 degrees) at 3 MPH (3 knots; 1.5 m/s)
Visibility: 6 or more miles (10+ km)
Ceiling: at least 12,000 feet AGL
Clouds: scattered clouds at 3500 feet AGL
Weather: no significant weather observed at this time

Forecast for: LEBB (BILBAO/SONDICA , ES)
Text: TAF LEBB 272300Z 2800/2824 14003KT 9999 SCT025 TX14/2814Z TN06/2807Z
Forecast period: 0000 UTC 28 February 2021 to 0000 UTC 01 March 2021
Forecast type: FROM: standard forecast or significant change
Winds: from the SE (140 degrees) at 3 MPH (3 knots; 1.5 m/s)
Visibility: 6 or more miles (10+ km)
Ceiling: at least 12,000 feet AGL
Clouds: scattered clouds at 2500 feet AGL
Weather: no significant weather forecast for this period
Text: TEMPO 2812/2818 08008KT
Forecast period: 1200 to 1800 UTC 28 February 2021
Forecast type: TEMPORARY: The following changes expected for less than half the time period
Winds: from the E (80 degrees) at 9 MPH (8 knots; 4.1 m/s)
Visibility: missing
Ceiling: unknown
Clouds: missing
Weather: no significant weather forecast for this period
Text: PROB30
Forecast period: 1600 to 2200 UTC 28 February 2021
Forecast type: TEMPORARY: The following changes expected for less than half the time period
Visibility: missing
Ceiling: at least 12,000 feet AGL
Clouds: scattered clouds at 2500 feet AGL
Weather: no significant weather forecast for this period